Time;durP1;ratioP1;P1;durP2;ratioP2;P2;SDS_P1;SDS_P2;PMS_P1;PMS_P2;Temp;Humidity;BMP_temperature;BMP_pressure;BME280_temperature;BME280_humidity;BME280_pressure;Samples;Min_cycle;Max_cycle;Signal;HPM_P1;HPM_P2
2021/06/21 02:46:23;;;;;;;6.18;2.50;;;18.80;99.90;;;;;;5804509;23;89399;-80
2021/06/21 02:48:48;;;;;;;9.63;2.20;;;18.80;99.90;;;;;;4876933;28;87025;-80
2021/06/21 02:51:21;;;;;;;4.95;2.22;;;18.80;99.90;;;;;;4877679;29;88416;-81
2021/06/21 02:53:57;;;;;;;7.65;2.58;;;18.70;99.90;;;;;;4877772;28;87880;-79
2021/06/21 02:56:56;;;;;;;8.55;2.47;;;18.60;99.90;;;;;;4897878;28;86755;-81
2021/06/21 02:59:24;;;;;;;8.00;3.03;;;18.60;99.90;;;;;;4898758;28;87001;-81
2021/06/21 03:01:52;;;;;;;5.95;2.47;;;18.60;99.90;;;;;;4898309;28;87192;-83
2021/06/21 03:04:21;;;;;;;8.20;2.75;;;18.60;99.90;;;;;;4898331;28;86277;-81
2021/06/21 03:06:48;;;;;;;5.85;2.35;;;18.60;99.90;;;;;;4895793;28;86844;-82
2021/06/21 03:09:16;;;;;;;9.10;3.00;;;18.70;99.90;;;;;;4899453;28;86850;-83
2021/06/21 03:11:43;;;;;;;6.35;2.85;;;18.70;99.90;;;;;;4898758;28;88004;-82
2021/06/21 03:14:09;;;;;;;7.03;2.75;;;18.70;99.90;;;;;;4902600;28;87095;-83
2021/06/21 03:16:36;;;;;;;9.00;2.90;;;18.60;99.90;;;;;;4902187;28;87081;-83
2021/06/21 03:19:03;;;;;;;9.48;2.70;;;18.60;99.90;;;;;;4902038;28;86758;-84
2021/06/21 03:21:29;;;;;;;10.07;2.92;;;18.60;99.90;;;;;;4888393;28;86965;-76
2021/06/21 03:23:55;;;;;;;10.82;3.63;;;18.60;99.90;;;;;;4876952;28;87127;-76
2021/06/21 03:26:29;;;;;;;4.97;2.63;;;18.60;99.90;;;;;;4876740;28;86954;-76
2021/06/21 03:28:56;;;;;;;9.02;3.20;;;18.60;99.90;;;;;;4880234;28;86332;-76
2021/06/21 03:31:24;;;;;;;6.28;3.10;;;18.60;99.90;;;;;;4880642;28;87214;-76
2021/06/21 03:33:51;;;;;;;7.60;3.13;;;18.60;99.90;;;;;;4879276;28;87999;-76
2021/06/21 03:36:17;;;;;;;7.72;3.03;;;18.60;99.90;;;;;;4878184;28;87974;-76
2021/06/21 03:38:43;;;;;;;7.25;3.38;;;18.60;99.90;;;;;;4879968;28;87026;-76
2021/06/21 03:41:09;;;;;;;11.02;3.00;;;18.70;99.90;;;;;;4881423;28;87203;-76
2021/06/21 03:43:36;;;;;;;7.80;2.92;;;18.70;99.90;;;;;;4881416;28;87373;-76
2021/06/21 03:46:05;;;;;;;6.90;3.25;;;18.70;99.90;;;;;;4880428;28;87087;-76
2021/06/21 03:48:31;;;;;;;10.98;3.75;;;18.70;99.90;;;;;;4863099;28;86982;-76
2021/06/21 03:50:57;;;;;;;9.93;3.38;;;18.80;99.90;;;;;;4868550;29;87001;-76
2021/06/21 03:53:26;;;;;;;7.40;2.97;;;18.70;99.90;;;;;;4862092;28;86849;-76
2021/06/21 03:55:52;;;;;;;9.23;3.42;;;18.70;99.90;;;;;;4848396;29;87023;-77
2021/06/21 03:58:17;;;;;;;7.63;3.38;;;18.70;99.90;;;;;;4848569;29;87020;-77
2021/06/21 04:00:44;;;;;;;8.23;3.90;;;18.70;99.90;;;;;;4863030;29;88133;-77
2021/06/21 04:03:11;;;;;;;8.48;2.95;;;18.70;99.90;;;;;;4851683;28;87121;-77
2021/06/21 04:05:39;;;;;;;7.43;3.10;;;18.60;99.90;;;;;;4866921;28;86616;-77
2021/06/21 04:08:09;;;;;;;9.38;3.10;;;18.60;99.90;;;;;;4867102;28;87044;-77
2021/06/21 04:10:36;;;;;;;10.87;3.13;;;18.60;99.90;;;;;;4866958;28;87450;-76
2021/06/21 04:13:03;;;;;;;7.50;2.83;;;18.60;99.90;;;;;;4867110;28;87307;-76
2021/06/21 04:15:30;;;;;;;9.88;3.65;;;18.60;99.90;;;;;;4867493;28;86915;-77
2021/06/21 04:18:02;;;;;;;9.65;2.80;;;18.60;99.90;;;;;;4867106;28;86218;-77
2021/06/21 04:20:28;;;;;;;8.40;2.95;;;18.50;99.90;;;;;;4865993;28;87628;-76
2021/06/21 04:22:56;;;;;;;8.48;3.28;;;18.50;99.90;;;;;;4867284;29;87330;-77
2021/06/21 04:25:23;;;;;;;10.85;3.38;;;18.50;99.90;;;;;;4858034;28;87980;-77
2021/06/21 04:27:49;;;;;;;7.13;3.50;;;18.50;99.90;;;;;;4867045;28;87063;-77
2021/06/21 04:30:18;;;;;;;12.40;3.20;;;18.60;99.90;;;;;;4866864;29;87689;-77
2021/06/21 04:32:44;;;;;;;8.77;3.40;;;18.70;99.90;;;;;;4866824;28;86726;-77
2021/06/21 04:35:13;;;;;;;6.10;2.47;;;18.80;99.90;;;;;;4868046;29;86851;-76
2021/06/21 04:37:46;;;;;;;6.30;2.78;;;18.90;99.90;;;;;;4868886;29;86912;-76
2021/06/21 04:40:13;;;;;;;9.40;3.20;;;19.10;99.90;;;;;;4852805;29;90256;-77
2021/06/21 04:42:41;;;;;;;15.15;3.95;;;19.20;99.90;;;;;;4869547;28;87266;-79
2021/06/21 04:45:08;;;;;;;8.05;3.03;;;19.30;99.90;;;;;;4874940;28;87023;-79
2021/06/21 04:47:34;;;;;;;6.90;2.47;;;19.30;99.90;;;;;;4868931;28;87037;-80
2021/06/21 04:50:04;;;;;;;6.70;2.70;;;19.40;99.90;;;;;;4853836;29;87883;-81
2021/06/21 04:52:34;;;;;;;9.73;2.55;;;19.50;99.90;;;;;;4869455;29;88815;-78
2021/06/21 04:55:01;;;;;;;8.77;3.08;;;19.60;99.90;;;;;;4868466;29;87231;-79
2021/06/21 04:57:31;;;;;;;8.68;2.45;;;19.70;99.90;;;;;;4866799;28;87075;-77
2021/06/21 04:59:57;;;;;;;7.53;2.70;;;19.90;99.90;;;;;;4871112;28;87467;-78
2021/06/21 05:02:23;;;;;;;10.73;3.03;;;19.90;99.90;;;;;;4869615;28;86795;-79
2021/06/21 05:04:49;;;;;;;7.03;3.28;;;20.00;99.90;;;;;;4873100;28;86676;-79
2021/06/21 05:07:15;;;;;;;8.02;2.42;;;20.10;99.90;;;;;;4874233;28;85566;-78
2021/06/21 05:09:42;;;;;;;8.45;2.60;;;20.20;99.90;;;;;;4873949;29;86884;-83
2021/06/21 05:12:09;;;;;;;7.03;2.97;;;20.30;99.90;;;;;;4879640;28;86706;-84
2021/06/21 05:14:35;;;;;;;4.85;2.50;;;20.40;99.90;;;;;;4878265;29;87606;-84
2021/06/21 05:17:00;;;;;;;7.93;2.83;;;20.50;99.90;;;;;;4878976;28;87017;-84
2021/06/21 05:19:26;;;;;;;7.65;3.28;;;20.60;99.90;;;;;;4880135;29;87704;-84
2021/06/21 05:21:52;;;;;;;6.38;2.70;;;20.60;99.90;;;;;;4881700;29;86716;-84
2021/06/21 05:24:18;;;;;;;5.35;2.38;;;20.70;99.90;;;;;;4880870;29;86706;-83
2021/06/21 05:26:43;;;;;;;6.18;2.67;;;20.70;99.90;;;;;;4876478;29;87148;-84
2021/06/21 05:29:09;;;;;;;8.02;2.55;;;20.80;99.90;;;;;;4877882;29;88540;-85
2021/06/21 05:31:36;;;;;;;7.78;3.65;;;20.60;99.90;;;;;;4877397;28;86105;-85
2021/06/21 05:34:02;;;;;;;11.73;5.35;;;21.60;99.90;;;;;;4878453;29;86856;-82
2021/06/21 05:36:27;;;;;;;7.93;3.95;;;20.90;99.90;;;;;;4879944;29;87091;-81
2021/06/21 05:38:53;;;;;;;13.38;4.18;;;21.00;99.90;;;;;;4879565;29;88846;-81
2021/06/21 05:41:19;;;;;;;8.15;2.53;;;21.10;99.90;;;;;;4879475;29;87909;-82
2021/06/21 05:43:44;;;;;;;7.70;4.35;;;21.10;99.90;;;;;;4879488;28;87119;-82
2021/06/21 05:46:10;;;;;;;11.45;4.20;;;21.50;99.90;;;;;;4878553;29;86905;-81
2021/06/21 05:48:36;;;;;;;11.60;3.90;;;21.50;99.90;;;;;;4878771;29;87147;-82
2021/06/21 05:51:02;;;;;;;8.13;3.83;;;21.30;99.90;;;;;;4879152;29;88098;-82
2021/06/21 05:53:29;;;;;;;10.63;4.13;;;21.40;99.90;;;;;;4879314;29;86760;-81
2021/06/21 05:55:56;;;;;;;8.40;3.63;;;21.30;99.90;;;;;;4877986;28;86139;-81
2021/06/21 05:58:22;;;;;;;7.03;3.95;;;21.40;99.60;;;;;;4878867;29;86736;-81
2021/06/21 06:00:47;;;;;;;8.95;4.10;;;21.30;99.90;;;;;;4868777;29;86560;-80
2021/06/21 06:03:13;;;;;;;9.38;3.95;;;21.00;99.50;;;;;;4877123;28;87897;-82
2021/06/21 06:05:39;;;;;;;7.97;3.88;;;21.40;99.90;;;;;;4875744;29;87026;-80
2021/06/21 06:08:05;;;;;;;10.02;4.10;;;21.50;99.90;;;;;;4875998;28;87744;-79
2021/06/21 06:10:31;;;;;;;9.52;4.30;;;21.50;99.90;;;;;;4876718;29;87012;-81
2021/06/21 06:12:57;;;;;;;8.75;3.80;;;21.60;99.90;;;;;;4876502;29;86849;-82
2021/06/21 06:15:23;;;;;;;6.25;4.43;;;22.00;99.90;;;;;;4877065;28;86967;-82
2021/06/21 06:17:50;;;;;;;7.13;2.85;;;21.80;99.90;;;;;;4877084;28;87305;-82
2021/06/21 06:20:16;;;;;;;12.40;4.93;;;21.90;99.90;;;;;;4878038;28;87388;-82
2021/06/21 06:22:42;;;;;;;10.88;5.32;;;22.20;99.90;;;;;;4864973;29;86958;-81
2021/06/21 06:25:08;;;;;;;11.13;4.28;;;22.20;99.90;;;;;;4877469;28;86254;-81
2021/06/21 06:27:34;;;;;;;9.70;4.72;;;22.20;99.90;;;;;;4862881;29;88926;-81
2021/06/21 06:30:00;;;;;;;7.55;4.00;;;22.40;99.90;;;;;;4876053;28;87867;-81
2021/06/21 06:32:26;;;;;;;8.52;4.40;;;22.30;99.90;;;;;;4876994;28;87298;-81
2021/06/21 06:34:52;;;;;;;6.50;4.35;;;22.40;99.90;;;;;;4877487;29;86914;-82
2021/06/21 06:37:17;;;;;;;5.90;4.05;;;22.40;99.90;;;;;;4876587;29;87660;-82
2021/06/21 06:39:43;;;;;;;10.00;4.30;;;22.20;98.60;;;;;;4875533;29;87114;-82
2021/06/21 06:42:09;;;;;;;10.88;4.43;;;22.60;99.20;;;;;;4875207;28;86885;-82
2021/06/21 06:44:37;;;;;;;9.82;4.68;;;22.70;97.30;;;;;;4873267;28;86426;-81
2021/06/21 06:47:03;;;;;;;8.25;5.10;;;23.00;97.00;;;;;;4873541;29;87029;-82
2021/06/21 06:49:29;;;;;;;7.40;4.38;;;22.80;97.10;;;;;;4876288;29;86918;-82
2021/06/21 06:51:56;;;;;;;11.88;3.15;;;22.80;96.40;;;;;;4876143;29;87807;-81
2021/06/21 06:54:24;;;;;;;9.20;4.90;;;22.70;95.50;;;;;;4876838;28;86934;-82
2021/06/21 06:57:00;;;;;;;9.50;3.90;;;22.80;95.40;;;;;;4874351;28;87579;-82
2021/06/21 06:59:32;;;;;;;9.90;4.15;;;22.80;95.60;;;;;;4870937;29;86949;-81
2021/06/21 07:02:00;;;;;;;7.97;4.18;;;23.00;95.40;;;;;;4873749;29;86956;-82
2021/06/21 07:04:27;;;;;;;9.70;3.95;;;23.00;95.50;;;;;;4875400;28;86684;-82
2021/06/21 07:06:53;;;;;;;11.10;4.93;;;23.10;95.70;;;;;;4877835;29;87043;-82
2021/06/21 07:09:19;;;;;;;12.30;4.72;;;23.30;97.00;;;;;;4879065;29;86387;-81
2021/06/21 07:11:48;;;;;;;8.07;4.53;;;23.40;97.60;;;;;;4880275;29;87447;-80
2021/06/21 07:14:13;;;;;;;9.13;5.07;;;23.50;97.30;;;;;;4879064;29;86863;-82
2021/06/21 07:16:39;;;;;;;9.88;4.88;;;23.60;96.80;;;;;;4879327;28;88134;-82
2021/06/21 07:19:05;;;;;;;10.50;5.70;;;23.70;97.10;;;;;;4878951;28;88168;-82
2021/06/21 07:21:31;;;;;;;6.22;4.45;;;23.90;96.50;;;;;;4879738;28;86547;-82
2021/06/21 07:23:58;;;;;;;11.38;5.10;;;24.00;96.10;;;;;;4880974;29;86419;-82
2021/06/21 07:26:24;;;;;;;9.65;4.60;;;24.00;95.90;;;;;;4879879;29;88490;-82
2021/06/21 07:28:51;;;;;;;9.60;4.75;;;24.20;95.80;;;;;;4876372;29;86870;-83
2021/06/21 07:31:17;;;;;;;7.03;4.47;;;24.30;96.00;;;;;;4878540;29;86096;-83
2021/06/21 07:33:43;;;;;;;12.00;5.38;;;24.40;95.00;;;;;;4878579;29;86020;-82
2021/06/21 07:36:09;;;;;;;12.35;4.90;;;24.30;94.50;;;;;;4879299;29;87188;-80
2021/06/21 07:38:35;;;;;;;9.85;5.20;;;24.20;94.20;;;;;;4878631;29;88732;-82
2021/06/21 07:41:01;;;;;;;11.52;4.55;;;24.20;94.00;;;;;;4878063;29;87792;-82
2021/06/21 07:43:26;;;;;;;8.68;4.55;;;24.30;94.20;;;;;;4882162;29;87036;-82
2021/06/21 07:45:52;;;;;;;7.88;4.32;;;24.30;94.10;;;;;;4882869;29;88031;-81
2021/06/21 07:48:18;;;;;;;9.65;4.70;;;24.40;94.20;;;;;;4880988;29;86973;-81
2021/06/21 07:50:44;;;;;;;9.65;4.70;;;24.60;94.10;;;;;;4881394;29;87095;-83
2021/06/21 07:53:10;;;;;;;9.02;4.50;;;24.70;93.00;;;;;;4880127;28;87076;-82
2021/06/21 07:55:37;;;;;;;11.73;4.75;;;24.70;92.60;;;;;;4881539;29;87357;-82
2021/06/21 07:58:04;;;;;;;5.72;4.43;;;24.70;93.20;;;;;;4880539;29;86529;-81
2021/06/21 08:00:32;;;;;;;7.28;4.45;;;24.80;92.90;;;;;;4876559;28;87716;-80
2021/06/21 08:02:58;;;;;;;7.53;4.22;;;24.90;92.70;;;;;;4880399;29;87041;-83
2021/06/21 08:05:24;;;;;;;7.40;3.83;;;25.00;91.80;;;;;;4880349;29;87977;-83
2021/06/21 08:07:50;;;;;;;7.65;3.97;;;25.10;91.50;;;;;;4880028;28;87097;-83
2021/06/21 08:10:16;;;;;;;12.05;4.38;;;25.20;91.90;;;;;;4880052;29;86955;-82
2021/06/21 08:12:43;;;;;;;6.70;4.55;;;25.30;92.40;;;;;;4879948;28;86252;-82
2021/06/21 08:15:11;;;;;;;9.07;4.50;;;25.30;92.20;;;;;;4879025;28;87191;-82
2021/06/21 08:17:38;;;;;;;13.20;4.63;;;25.40;91.20;;;;;;4878758;28;89291;-83
2021/06/21 08:20:06;;;;;;;9.60;4.63;;;25.40;91.20;;;;;;4879850;29;87101;-82
2021/06/21 08:22:32;;;;;;;5.57;4.35;;;25.40;90.70;;;;;;4879276;29;86140;-83
2021/06/21 08:24:57;;;;;;;12.40;4.43;;;25.50;90.90;;;;;;4879013;28;87400;-82
2021/06/21 08:27:23;;;;;;;12.32;4.38;;;25.60;90.40;;;;;;4879823;29;87869;-80
2021/06/21 08:29:49;;;;;;;7.95;4.47;;;25.70;88.40;;;;;;4876063;29;87882;-82
2021/06/21 08:32:15;;;;;;;7.78;4.07;;;25.80;85.40;;;;;;4879824;28;86973;-82
2021/06/21 08:34:40;;;;;;;9.65;4.15;;;25.80;85.70;;;;;;4879997;28;86951;-80
2021/06/21 08:37:07;;;;;;;13.00;4.38;;;25.90;85.80;;;;;;4878238;29;86847;-81
2021/06/21 08:39:33;;;;;;;9.98;4.15;;;26.00;84.50;;;;;;4881062;28;87089;-81
2021/06/21 08:41:59;;;;;;;9.30;4.82;;;26.00;87.00;;;;;;4880003;29;86903;-80
2021/06/21 08:44:26;;;;;;;7.90;4.03;;;26.00;84.70;;;;;;4881245;29;87061;-82
2021/06/21 08:46:52;;;;;;;11.60;4.53;;;26.10;85.50;;;;;;4877873;29;86888;-83
2021/06/21 08:49:18;;;;;;;6.50;4.40;;;26.20;86.80;;;;;;4879139;28;86563;-83
2021/06/21 08:51:45;;;;;;;7.32;4.13;;;26.20;83.90;;;;;;4879807;29;86811;-82
2021/06/21 08:54:10;;;;;;;10.20;4.72;;;26.30;85.10;;;;;;4880435;29;88289;-80
2021/06/21 08:56:36;;;;;;;11.38;4.20;;;26.40;83.60;;;;;;4883679;28;87859;-81
2021/06/21 08:59:06;;;;;;;7.45;3.78;;;26.70;81.30;;;;;;4885181;28;86348;-82
2021/06/21 09:01:33;;;;;;;4.57;4.13;;;26.80;80.30;;;;;;4878577;29;87111;-80
2021/06/21 09:04:01;;;;;;;6.32;4.18;;;26.90;79.20;;;;;;4880229;29;86967;-81
2021/06/21 09:06:35;;;;;;;6.50;3.75;;;27.00;77.60;;;;;;4883502;29;86964;-81
2021/06/21 09:09:00;;;;;;;8.55;4.68;;;27.10;76.10;;;;;;4884086;29;87727;-83
2021/06/21 09:11:54;;;;;;;11.93;4.40;;;27.30;77.20;;;;;;4882085;28;86311;-83
2021/06/21 09:14:26;;;;;;;9.35;4.53;;;27.60;76.20;;;;;;4879314;29;87547;-81
2021/06/21 09:16:54;;;;;;;7.90;4.10;;;28.00;74.60;;;;;;4881749;28;87264;-83
2021/06/21 09:19:20;;;;;;;9.35;4.18;;;28.20;72.70;;;;;;4882198;29;87839;-83
2021/06/21 09:21:46;;;;;;;5.95;3.83;;;28.60;70.60;;;;;;4879006;29;86982;-83
2021/06/21 09:24:19;;;;;;;10.45;4.82;;;28.80;68.70;;;;;;4883252;29;87179;-82
2021/06/21 09:26:48;;;;;;;6.63;4.10;;;29.30;66.10;;;;;;4882031;29;87001;-82
2021/06/21 09:29:14;;;;;;;8.75;4.63;;;29.70;66.00;;;;;;4880809;29;86849;-82
2021/06/21 09:31:50;;;;;;;7.20;3.92;;;29.90;62.20;;;;;;4878105;28;87011;-81
2021/06/21 09:34:18;;;;;;;7.05;4.63;;;30.50;61.70;;;;;;4878689;28;86917;-82
2021/06/21 09:36:44;;;;;;;8.25;4.53;;;31.20;59.40;;;;;;4881698;29;86255;-81
2021/06/21 09:39:21;;;;;;;8.82;4.10;;;31.80;57.30;;;;;;4883006;29;86794;-82
2021/06/21 09:42:06;;;;;;;5.05;3.72;;;32.80;54.50;;;;;;4882604;28;86369;-82
2021/06/21 09:44:40;;;;;;;9.00;4.70;;;33.60;51.50;;;;;;4885520;29;87959;-83
2021/06/21 09:47:34;;;;;;;8.02;4.30;;;34.10;50.70;;;;;;4886099;28;88002;-82
2021/06/21 09:50:12;;;;;;;6.80;4.60;;;34.90;48.40;;;;;;4888446;28;86222;-82
2021/06/21 09:52:58;;;;;;;11.60;5.10;;;36.20;48.70;;;;;;4881382;28;86649;-83
2021/06/21 09:55:26;;;;;;;10.85;4.95;;;37.20;46.50;;;;;;4883778;28;87892;-82
2021/06/21 09:58:08;;;;;;;5.45;4.20;;;38.20;44.70;;;;;;4885466;29;86937;-82
2021/06/21 10:00:37;;;;;;;7.25;4.57;;;38.40;42.20;;;;;;4887060;29;87020;-81
2021/06/21 10:03:14;;;;;;;7.82;4.28;;;38.60;41.10;;;;;;4868954;29;86413;-83
2021/06/21 10:05:46;;;;;;;6.07;4.85;;;39.00;41.80;;;;;;4877940;29;87244;-82
2021/06/21 10:08:15;;;;;;;6.07;4.82;;;39.90;39.80;;;;;;4873437;28;87008;-83
2021/06/21 10:10:42;;;;;;;7.95;4.85;;;40.30;39.30;;;;;;4857529;28;88430;-80
2021/06/21 10:13:11;;;;;;;5.00;4.60;;;40.70;38.70;;;;;;4863855;28;87844;-83
2021/06/21 10:15:39;;;;;;;6.85;5.13;;;40.90;38.10;;;;;;4857299;28;87337;-84
2021/06/21 10:18:06;;;;;;;5.63;4.68;;;40.90;38.30;;;;;;4862868;28;88785;-79
2021/06/21 10:20:32;;;;;;;5.60;5.10;;;41.50;38.40;;;;;;4861374;28;87627;-81
2021/06/21 10:22:59;;;;;;;6.43;5.07;;;42.00;36.30;;;;;;4859174;28;86381;-80
2021/06/21 10:25:25;;;;;;;7.78;5.60;;;41.90;36.70;;;;;;4865322;28;91827;-81
2021/06/21 10:27:51;;;;;;;7.60;5.07;;;41.40;36.80;;;;;;4860159;28;87029;-81
2021/06/21 10:30:20;;;;;;;6.28;5.88;;;41.40;37.20;;;;;;4855586;28;89511;-80
2021/06/21 10:32:52;;;;;;;6.30;5.40;;;41.90;35.80;;;;;;4856111;29;87088;-81
2021/06/21 10:35:18;;;;;;;7.47;5.15;;;42.10;36.10;;;;;;4855746;28;88571;-82
2021/06/21 10:38:17;;;;;;;5.82;5.22;;;42.50;35.50;;;;;;4858412;28;88760;-81
2021/06/21 10:40:55;;;;;;;5.50;5.20;;;42.40;35.40;;;;;;4843166;29;86703;-81
2021/06/21 10:43:40;;;;;;;5.75;5.20;;;42.70;34.90;;;;;;4856510;28;87511;-82
2021/06/21 10:46:29;;;;;;;6.95;5.47;;;42.90;34.40;;;;;;4857874;28;88033;-82
2021/06/21 10:49:01;;;;;;;6.95;6.18;;;42.90;34.60;;;;;;4852969;28;86659;-82
2021/06/21 10:51:39;;;;;;;5.90;5.40;;;43.40;34.50;;;;;;4859369;28;86954;-81
2021/06/21 10:54:07;;;;;;;7.15;5.68;;;42.60;34.40;;;;;;4868305;29;86103;-84
2021/06/21 10:57:16;;;;;;;8.68;6.28;;;42.80;35.20;;;;;;4867903;28;87128;-82
2021/06/21 10:59:42;;;;;;;6.03;5.60;;;44.20;33.30;;;;;;4845160;29;86987;-82
2021/06/21 11:02:10;;;;;;;7.95;5.53;;;44.10;33.20;;;;;;4844341;29;87729;-82
2021/06/21 11:04:36;;;;;;;6.10;5.50;;;44.00;33.70;;;;;;4845375;29;87118;-81
2021/06/21 11:07:19;;;;;;;6.43;5.75;;;44.00;33.80;;;;;;4856252;28;87151;-82
2021/06/21 11:09:50;;;;;;;5.78;5.43;;;43.80;33.70;;;;;;4860283;28;89909;-82
2021/06/21 11:12:22;;;;;;;9.90;5.68;;;44.50;32.70;;;;;;4862532;28;87218;-81
2021/06/21 11:15:12;;;;;;;6.78;5.75;;;44.70;32.80;;;;;;4862461;28;86850;-80
2021/06/21 11:17:57;;;;;;;6.10;5.50;;;45.50;32.40;;;;;;4858670;28;86976;-82
2021/06/21 11:20:30;;;;;;;6.25;5.55;;;45.10;32.70;;;;;;4862643;28;86358;-81
2021/06/21 11:23:00;;;;;;;6.30;5.80;;;45.10;32.30;;;;;;4855239;28;86949;-82
2021/06/21 11:25:41;;;;;;;6.82;5.40;;;44.80;32.90;;;;;;4879051;29;86989;-82
2021/06/21 11:28:27;;;;;;;6.60;5.90;;;45.10;32.50;;;;;;4878266;28;88602;-80
2021/06/21 11:30:52;;;;;;;6.35;5.75;;;45.30;31.90;;;;;;4880784;29;87753;-80
2021/06/21 11:33:18;;;;;;;6.63;6.00;;;44.70;32.20;;;;;;4876745;28;86675;-81
2021/06/21 11:35:54;;;;;;;6.78;6.15;;;44.50;33.10;;;;;;4881028;28;86897;-81
2021/06/21 11:38:32;;;;;;;6.28;5.70;;;44.70;33.00;;;;;;4881520;29;88418;-80
2021/06/21 11:41:17;;;;;;;6.78;6.03;;;44.70;33.00;;;;;;4882881;28;86903;-81
2021/06/21 11:43:46;;;;;;;6.63;5.90;;;45.60;31.80;;;;;;4876868;29;86918;-81
2021/06/21 11:46:37;;;;;;;6.20;5.60;;;46.00;32.10;;;;;;4882317;28;86344;-81
2021/06/21 11:49:21;;;;;;;6.07;5.57;;;45.40;31.50;;;;;;4881991;29;88473;-82
2021/06/21 11:51:52;;;;;;;6.88;5.85;;;44.30;33.00;;;;;;4883722;29;86440;-82
2021/06/21 11:54:18;;;;;;;5.65;5.25;;;44.70;32.30;;;;;;4882390;29;87794;-82
2021/06/21 11:56:54;;;;;;;6.80;6.05;;;44.60;32.70;;;;;;4884425;29;86941;-82
2021/06/21 11:59:35;;;;;;;6.47;5.97;;;44.70;32.90;;;;;;4882821;29;87312;-82
2021/06/21 12:02:03;;;;;;;8.93;5.85;;;44.80;32.60;;;;;;4882827;29;87414;-82
2021/06/21 12:04:29;;;;;;;7.20;6.43;;;45.00;32.40;;;;;;4878941;28;86816;-81
2021/06/21 12:06:55;;;;;;;6.50;5.90;;;44.80;32.20;;;;;;4882882;29;87121;-82
2021/06/21 12:09:21;;;;;;;6.45;5.90;;;44.50;32.80;;;;;;4881947;29;87308;-81
2021/06/21 12:11:51;;;;;;;6.50;5.90;;;44.90;32.00;;;;;;4882742;28;86925;-81
2021/06/21 12:14:22;;;;;;;6.85;6.15;;;44.40;31.90;;;;;;4881537;28;86576;-82
2021/06/21 12:16:47;;;;;;;6.32;5.70;;;43.60;32.60;;;;;;4882979;28;87069;-82
2021/06/21 12:19:13;;;;;;;6.57;5.88;;;43.10;32.60;;;;;;4880119;29;87925;-80
2021/06/21 12:21:44;;;;;;;6.50;5.57;;;42.70;32.80;;;;;;4881249;29;87592;-81
2021/06/21 12:24:28;;;;;;;6.22;5.47;;;42.10;33.00;;;;;;4882231;28;86882;-82
2021/06/21 12:27:06;;;;;;;6.28;5.10;;;42.40;33.00;;;;;;4883427;28;86067;-82
2021/06/21 12:29:34;;;;;;;6.85;5.07;;;42.80;32.00;;;;;;4882746;28;87120;-82
2021/06/21 12:32:01;;;;;;;6.30;5.80;;;42.50;33.30;;;;;;4882067;29;86909;-82
2021/06/21 12:34:49;;;;;;;6.00;5.40;;;42.60;32.30;;;;;;4878837;29;86916;-80
2021/06/21 12:37:21;;;;;;;6.10;5.50;;;42.70;33.50;;;;;;4871388;29;86254;-82
2021/06/21 12:39:50;;;;;;;6.22;5.68;;;42.80;33.10;;;;;;4881176;29;87072;-81
2021/06/21 12:42:17;;;;;;;5.60;5.20;;;43.10;31.90;;;;;;4879769;28;86715;-81
2021/06/21 12:44:45;;;;;;;5.88;5.28;;;42.50;31.80;;;;;;4880933;29;87354;-82
2021/06/21 12:47:24;;;;;;;6.50;5.25;;;42.20;30.80;;;;;;4880496;28;86508;-83
2021/06/21 12:49:52;;;;;;;;;;;41.30;31.70;;;;;;4881921;28;87121;-82
2021/06/21 12:52:19;;;;;;;5.53;4.80;;;41.00;33.00;;;;;;4881878;28;87229;-82
2021/06/21 12:54:46;;;;;;;6.05;5.13;;;41.00;33.50;;;;;;4881601;28;86740;-79
2021/06/21 12:57:12;;;;;;;9.00;5.30;;;40.60;33.00;;;;;;4881008;29;87060;-80
2021/06/21 12:59:43;;;;;;;8.90;5.90;;;40.00;33.20;;;;;;4880217;28;87668;-81
2021/06/21 13:02:21;;;;;;;8.13;5.68;;;39.70;33.50;;;;;;4880487;29;87481;-80
2021/06/21 13:05:05;;;;;;;8.63;5.47;;;40.10;34.90;;;;;;4878270;29;86898;-83
2021/06/21 13:07:31;;;;;;;5.82;5.28;;;39.80;33.10;;;;;;4880405;28;87124;-82
2021/06/21 13:09:57;;;;;;;8.13;5.55;;;39.00;34.20;;;;;;4878898;28;88209;-82
2021/06/21 13:12:24;;;;;;;6.97;5.03;;;38.30;35.90;;;;;;4879691;28;87253;-82
2021/06/21 13:15:02;;;;;;;6.45;5.30;;;38.70;36.20;;;;;;4882422;29;87104;-81
2021/06/21 13:17:28;;;;;;;5.90;5.30;;;38.90;36.80;;;;;;4879171;29;87044;-82
2021/06/21 13:19:59;;;;;;;6.57;5.50;;;38.60;35.60;;;;;;4880428;29;88097;-83
2021/06/21 13:22:30;;;;;;;9.10;5.28;;;38.20;36.30;;;;;;4879909;28;87269;-81
2021/06/21 13:24:57;;;;;;;5.53;4.95;;;38.20;36.80;;;;;;4881076;28;86985;-82
2021/06/21 13:27:26;;;;;;;7.18;4.90;;;38.60;37.50;;;;;;4879492;28;86207;-81
2021/06/21 13:29:55;;;;;;;7.78;5.03;;;38.60;36.70;;;;;;4879272;29;87635;-82
2021/06/21 13:32:27;;;;;;;5.97;5.00;;;38.50;36.60;;;;;;4880073;28;86850;-82
2021/06/21 13:34:55;;;;;;;5.60;4.90;;;38.20;37.20;;;;;;4879604;28;87835;-83
2021/06/21 13:37:32;;;;;;;8.93;4.60;;;38.20;36.90;;;;;;4874992;29;86862;-83
2021/06/21 13:40:09;;;;;;;5.75;4.63;;;38.20;36.90;;;;;;4876997;29;87248;-81
2021/06/21 13:42:50;;;;;;;7.60;4.53;;;37.80;36.60;;;;;;4880446;29;87002;-83
2021/06/21 13:45:36;;;;;;;4.78;4.18;;;36.60;38.10;;;;;;4878957;29;86745;-83
2021/06/21 13:48:04;;;;;;;7.00;4.20;;;34.80;39.80;;;;;;4879369;29;86306;-82
2021/06/21 13:50:39;;;;;;;6.28;4.38;;;33.80;40.70;;;;;;4882335;28;86869;-81
2021/06/21 13:53:06;;;;;;;9.63;4.55;;;33.00;42.20;;;;;;4880144;29;87257;-82
2021/06/21 13:55:46;;;;;;;5.38;3.85;;;32.30;42.90;;;;;;4880213;29;86889;-81
2021/06/21 13:58:14;;;;;;;7.00;4.03;;;31.50;44.10;;;;;;4879640;28;86780;-81
2021/06/21 14:00:46;;;;;;;6.22;4.30;;;31.10;45.70;;;;;;4878629;29;88258;-82
2021/06/21 14:03:27;;;;;;;5.18;4.13;;;31.30;45.00;;;;;;4877971;28;87871;-79
2021/06/21 14:05:59;;;;;;;7.85;4.00;;;31.90;44.80;;;;;;4878095;29;87055;-80
2021/06/21 14:08:26;;;;;;;7.57;4.22;;;32.10;45.00;;;;;;4868876;29;86933;-81
2021/06/21 14:10:57;;;;;;;6.30;4.18;;;32.60;43.10;;;;;;4878029;28;86820;-81
2021/06/21 14:13:31;;;;;;;6.85;4.20;;;32.60;43.20;;;;;;4882714;28;86822;-80
2021/06/21 14:15:57;;;;;;;5.40;4.07;;;32.40;43.20;;;;;;4864295;29;86785;-80
2021/06/21 14:18:25;;;;;;;5.78;3.85;;;32.40;42.80;;;;;;4867657;29;86421;-80
2021/06/21 14:20:53;;;;;;;5.55;4.10;;;32.50;44.20;;;;;;4865699;29;88665;-81
2021/06/21 14:23:19;;;;;;;6.85;5.00;;;32.90;43.60;;;;;;4858686;29;87677;-81
2021/06/21 14:25:44;;;;;;;8.40;4.40;;;33.10;43.80;;;;;;4858599;29;88136;-81
2021/06/21 14:28:10;;;;;;;6.45;4.30;;;33.10;42.40;;;;;;4857841;29;86552;-81
2021/06/21 14:30:37;;;;;;;7.65;4.88;;;33.00;42.70;;;;;;4858373;29;86953;-80
2021/06/21 14:33:04;;;;;;;6.45;3.85;;;32.90;42.40;;;;;;4858051;29;87055;-80
2021/06/21 14:35:31;;;;;;;4.75;4.20;;;32.60;42.60;;;;;;4860261;29;86615;-79
2021/06/21 14:37:57;;;;;;;5.38;4.47;;;32.40;43.10;;;;;;4855492;29;87245;-80
2021/06/21 14:40:23;;;;;;;7.47;4.30;;;32.20;44.10;;;;;;4859650;29;87153;-78
2021/06/21 14:42:49;;;;;;;8.70;4.72;;;32.20;43.10;;;;;;4860017;29;86904;-80
2021/06/21 14:45:15;;;;;;;8.27;4.60;;;32.00;43.70;;;;;;4860489;29;86914;-82
2021/06/21 14:47:41;;;;;;;6.88;4.32;;;32.00;43.40;;;;;;4859376;29;86277;-81
2021/06/21 14:50:12;;;;;;;7.78;4.40;;;32.00;43.80;;;;;;4857320;29;88844;-81
2021/06/21 14:52:41;;;;;;;9.98;4.80;;;31.70;44.40;;;;;;4856105;29;88027;-81
2021/06/21 14:55:09;;;;;;;5.57;4.00;;;31.60;44.30;;;;;;4851634;29;88706;-79
2021/06/21 14:57:38;;;;;;;6.25;4.10;;;31.60;43.90;;;;;;4852909;29;86684;-82
2021/06/21 15:00:09;;;;;;;8.23;4.00;;;31.60;45.20;;;;;;4857527;29;88069;-79
2021/06/21 15:02:35;;;;;;;10.38;4.35;;;31.90;44.70;;;;;;4863469;29;89566;-81
2021/06/21 15:05:02;;;;;;;10.90;4.30;;;32.30;43.90;;;;;;4865453;29;86831;-78
2021/06/21 15:07:29;;;;;;;8.98;4.30;;;32.20;43.40;;;;;;4860232;29;86310;-80
2021/06/21 15:09:56;;;;;;;6.43;4.40;;;32.20;43.30;;;;;;4862422;29;87580;-80
2021/06/21 15:12:21;;;;;;;8.63;4.70;;;32.20;43.30;;;;;;4857305;29;86988;-79
2021/06/21 15:14:47;;;;;;;10.30;4.63;;;32.10;44.20;;;;;;4846014;29;87677;-80
2021/06/21 15:17:13;;;;;;;7.80;4.07;;;32.10;43.50;;;;;;4850144;29;86692;-79
2021/06/21 15:19:39;;;;;;;7.10;4.13;;;32.10;43.20;;;;;;4848277;29;87358;-79
2021/06/21 15:22:04;;;;;;;6.28;4.38;;;32.00;43.80;;;;;;4845615;29;87244;-78
2021/06/21 15:24:30;;;;;;;8.57;4.70;;;32.10;43.90;;;;;;4848584;29;86801;-81
2021/06/21 15:26:56;;;;;;;8.65;4.35;;;32.00;43.40;;;;;;4845489;29;86818;-81
2021/06/21 15:29:24;;;;;;;9.70;4.38;;;31.70;44.00;;;;;;4848145;29;87096;-82
2021/06/21 15:31:50;;;;;;;6.35;3.85;;;31.40;44.50;;;;;;4846420;29;87262;-81
2021/06/21 15:34:15;;;;;;;9.10;4.50;;;31.50;45.10;;;;;;4848843;29;86540;-81
2021/06/21 15:36:41;;;;;;;6.55;4.00;;;31.60;45.10;;;;;;4855014;29;87345;-81
2021/06/21 15:39:07;;;;;;;8.85;4.32;;;31.60;44.90;;;;;;4844275;29;88649;-80
2021/06/21 15:41:33;;;;;;;9.85;4.47;;;31.70;45.20;;;;;;4845443;29;87917;-79